sensor_id;sensor_type;location;lat;lon;timestamp;pressure;altitude;pressure_sealevel;temperature;humidity
54503;BME280;40411;50.090;21.954;2023-10-08T00:01:50;56137.38;;;17.58;85.63
54503;BME280;40411;50.090;21.954;2023-10-08T00:04:16;55914.13;;;17.81;84.30
54503;BME280;40411;50.090;21.954;2023-10-08T00:06:45;56151.03;;;17.59;85.17
54503;BME280;40411;50.090;21.954;2023-10-08T00:09:12;56461.56;;;17.36;85.92
54503;BME280;40411;50.090;21.954;2023-10-08T00:11:38;55593.13;;;17.93;84.32
54503;BME280;40411;50.090;21.954;2023-10-08T00:14:06;56442.84;;;17.33;86.22
54503;BME280;40411;50.090;21.954;2023-10-08T00:16:36;55910.03;;;17.80;83.89
54503;BME280;40411;50.090;21.954;2023-10-08T00:19:08;56287.88;;;17.48;86.07
54503;BME280;40411;50.090;21.954;2023-10-08T00:21:35;55410.53;;;18.18;82.34
54503;BME280;40411;50.090;21.954;2023-10-08T00:24:03;54576.56;;;18.80;79.89
54503;BME280;40411;50.090;21.954;2023-10-08T00:26:33;55475.25;;;18.19;81.65
54503;BME280;40411;50.090;21.954;2023-10-08T00:29:02;55513.81;;;18.07;82.80
54503;BME280;40411;50.090;21.954;2023-10-08T00:31:33;55809.22;;;17.88;83.65
54503;BME280;40411;50.090;21.954;2023-10-08T00:34:06;55710.06;;;18.00;82.99
54503;BME280;40411;50.090;21.954;2023-10-08T00:36:42;56405.31;;;17.55;84.36
54503;BME280;40411;50.090;21.954;2023-10-08T00:39:09;56063.72;;;17.70;84.76
54503;BME280;40411;50.090;21.954;2023-10-08T00:41:49;56483.81;;;17.21;88.04
54503;BME280;40411;50.090;21.954;2023-10-08T00:44:16;56153.81;;;17.51;86.57
54503;BME280;40411;50.090;21.954;2023-10-08T00:46:49;56984.47;;;16.78;89.83
54503;BME280;40411;50.090;21.954;2023-10-08T00:49:21;57070.47;;;16.74;90.30
54503;BME280;40411;50.090;21.954;2023-10-08T00:51:57;57319.28;;;16.51;91.59
54503;BME280;40411;50.090;21.954;2023-10-08T00:54:45;57218.84;;;16.59;91.08
54503;BME280;40411;50.090;21.954;2023-10-08T00:57:29;57171.63;;;16.64;89.90
54503;BME280;40411;50.090;21.954;2023-10-08T00:59:56;57134.00;;;16.61;91.46
54503;BME280;40411;50.090;21.954;2023-10-08T01:02:30;56403.94;;;17.26;88.31
54503;BME280;40411;50.090;21.954;2023-10-08T01:05:17;56018.38;;;17.58;86.57
54503;BME280;40411;50.090;21.954;2023-10-08T01:07:52;56985.25;;;16.89;88.78
54503;BME280;40411;50.090;21.954;2023-10-08T01:10:21;56196.13;;;17.42;86.94
54503;BME280;40411;50.090;21.954;2023-10-08T01:12:47;57193.34;;;16.62;90.45
54503;BME280;40411;50.090;21.954;2023-10-08T01:15:32;56536.47;;;17.35;85.64
54503;BME280;40411;50.090;21.954;2023-10-08T01:18:02;57392.66;;;16.64;87.41
54503;BME280;40411;50.090;21.954;2023-10-08T01:20:51;55960.09;;;17.80;83.85
54503;BME280;40411;50.090;21.954;2023-10-08T01:23:20;55609.94;;;18.11;82.07
54503;BME280;40411;50.090;21.954;2023-10-08T01:25:48;56024.31;;;17.81;83.14
54503;BME280;40411;50.090;21.954;2023-10-08T01:28:19;56080.72;;;17.68;84.77
54503;BME280;40411;50.090;21.954;2023-10-08T01:30:55;56462.81;;;17.40;85.99
54503;BME280;40411;50.090;21.954;2023-10-08T01:33:26;56326.72;;;17.50;85.22
54503;BME280;40411;50.090;21.954;2023-10-08T01:35:56;56015.59;;;17.72;84.39
54503;BME280;40411;50.090;21.954;2023-10-08T01:38:29;56269.09;;;17.58;84.50
54503;BME280;40411;50.090;21.954;2023-10-08T01:40:56;56174.06;;;17.61;84.87
54503;BME280;40411;50.090;21.954;2023-10-08T01:43:22;57163.91;;;16.78;88.60
54503;BME280;40411;50.090;21.954;2023-10-08T01:45:48;56476.38;;;17.22;87.71
54503;BME280;40411;50.090;21.954;2023-10-08T01:48:18;57042.19;;;16.88;88.51
54503;BME280;40411;50.090;21.954;2023-10-08T01:50:57;56393.94;;;17.46;85.38
54503;BME280;40411;50.090;21.954;2023-10-08T01:53:27;56883.44;;;17.15;85.97
54503;BME280;40411;50.090;21.954;2023-10-08T01:55:53;57350.41;;;16.75;87.35
54503;BME280;40411;50.090;21.954;2023-10-08T01:58:21;55967.59;;;17.91;82.22
54503;BME280;40411;50.090;21.954;2023-10-08T02:00:48;55932.00;;;18.06;81.14
54503;BME280;40411;50.090;21.954;2023-10-08T02:03:16;56243.91;;;17.76;82.47
54503;BME280;40411;50.090;21.954;2023-10-08T02:05:44;56916.25;;;17.27;83.95
54503;BME280;40411;50.090;21.954;2023-10-08T02:08:11;57015.44;;;17.10;85.05
54503;BME280;40411;50.090;21.954;2023-10-08T02:10:39;56608.94;;;17.45;83.95
54503;BME280;40411;50.090;21.954;2023-10-08T02:13:07;56262.38;;;17.76;82.10
54503;BME280;40411;50.090;21.954;2023-10-08T02:15:40;55563.91;;;18.29;79.84
54503;BME280;40411;50.090;21.954;2023-10-08T02:18:06;55944.47;;;18.08;80.27
54503;BME280;40411;50.090;21.954;2023-10-08T02:20:32;55541.13;;;18.36;79.61
54503;BME280;40411;50.090;21.954;2023-10-08T02:22:58;55401.31;;;18.53;78.38
54503;BME280;40411;50.090;21.954;2023-10-08T02:25:26;55411.88;;;18.53;78.32
54503;BME280;40411;50.090;21.954;2023-10-08T02:27:52;55944.28;;;18.16;79.34
54503;BME280;40411;50.090;21.954;2023-10-08T02:30:18;55493.41;;;18.50;77.52
54503;BME280;40411;50.090;21.954;2023-10-08T02:32:44;56187.13;;;17.94;80.17
54503;BME280;40411;50.090;21.954;2023-10-08T02:35:11;57052.56;;;17.21;83.76
54503;BME280;40411;50.090;21.954;2023-10-08T02:37:39;56596.94;;;17.57;82.62
54503;BME280;40411;50.090;21.954;2023-10-08T02:40:09;56636.19;;;17.68;80.89
54503;BME280;40411;50.090;21.954;2023-10-08T02:42:54;57170.53;;;17.37;80.57
54503;BME280;40411;50.090;21.954;2023-10-08T02:45:27;57843.94;;;16.79;82.51
54503;BME280;40411;50.090;21.954;2023-10-08T02:47:54;57708.47;;;16.91;82.08
54503;BME280;40411;50.090;21.954;2023-10-08T02:50:21;57164.63;;;17.39;79.91
54503;BME280;40411;50.090;21.954;2023-10-08T02:52:49;57260.28;;;17.34;80.28
54503;BME280;40411;50.090;21.954;2023-10-08T02:55:18;56649.75;;;17.90;78.03
54503;BME280;40411;50.090;21.954;2023-10-08T02:58:13;57759.47;;;16.92;81.15
54503;BME280;40411;50.090;21.954;2023-10-08T03:00:44;57125.72;;;17.53;78.86
54503;BME280;40411;50.090;21.954;2023-10-08T03:03:16;58261.28;;;16.48;82.59
54503;BME280;40411;50.090;21.954;2023-10-08T03:05:47;57549.78;;;17.12;80.89
54503;BME280;40411;50.090;21.954;2023-10-08T03:08:17;57409.28;;;17.36;78.47
54503;BME280;40411;50.090;21.954;2023-10-08T03:10:47;57437.72;;;17.27;79.47
54503;BME280;40411;50.090;21.954;2023-10-08T03:13:16;57084.69;;;17.60;78.22
54503;BME280;40411;50.090;21.954;2023-10-08T03:15:43;58346.25;;;16.54;81.17
54503;BME280;40411;50.090;21.954;2023-10-08T03:18:28;57467.22;;;17.36;78.14
54503;BME280;40411;50.090;21.954;2023-10-08T03:21:07;57601.72;;;17.33;77.16
54503;BME280;40411;50.090;21.954;2023-10-08T03:23:49;57516.63;;;17.38;77.88
54503;BME280;40411;50.090;21.954;2023-10-08T03:26:17;57303.06;;;17.65;76.03
54503;BME280;40411;50.090;21.954;2023-10-08T03:29:00;57608.34;;;17.46;76.03
54503;BME280;40411;50.090;21.954;2023-10-08T03:31:30;58069.25;;;17.00;78.28
54503;BME280;40411;50.090;21.954;2023-10-08T03:34:18;58248.56;;;16.84;78.34
54503;BME280;40411;50.090;21.954;2023-10-08T03:36:46;58709.03;;;16.38;80.07
54503;BME280;40411;50.090;21.954;2023-10-08T03:39:16;58516.84;;;16.65;78.26
54503;BME280;40411;50.090;21.954;2023-10-08T03:41:44;58485.81;;;16.76;76.86
54503;BME280;40411;50.090;21.954;2023-10-08T03:44:33;57630.00;;;17.62;73.45
54503;BME280;40411;50.090;21.954;2023-10-08T03:47:02;57409.47;;;17.91;72.10
54503;BME280;40411;50.090;21.954;2023-10-08T03:49:36;57967.53;;;17.30;75.43
54503;BME280;40411;50.090;21.954;2023-10-08T03:52:10;57485.75;;;17.85;72.62
54503;BME280;40411;50.090;21.954;2023-10-08T03:54:36;57838.75;;;17.44;74.63
54503;BME280;40411;50.090;21.954;2023-10-08T03:57:08;57903.03;;;17.34;75.24
54503;BME280;40411;50.090;21.954;2023-10-08T03:59:41;57904.75;;;17.41;75.05
54503;BME280;40411;50.090;21.954;2023-10-08T04:02:07;57729.59;;;17.54;74.91
54503;BME280;40411;50.090;21.954;2023-10-08T04:04:41;57463.38;;;17.81;73.17
54503;BME280;40411;50.090;21.954;2023-10-08T04:07:24;57872.13;;;17.40;75.06
54503;BME280;40411;50.090;21.954;2023-10-08T04:09:52;58056.66;;;17.19;75.94
54503;BME280;40411;50.090;21.954;2023-10-08T04:12:31;57223.28;;;18.00;72.87
54503;BME280;40411;50.090;21.954;2023-10-08T04:15:04;57943.91;;;17.38;74.88
54503;BME280;40411;50.090;21.954;2023-10-08T04:17:33;57868.72;;;17.45;74.42
54503;BME280;40411;50.090;21.954;2023-10-08T04:20:13;57531.88;;;17.73;73.94
54503;BME280;40411;50.090;21.954;2023-10-08T04:23:03;57155.84;;;18.06;72.18
54503;BME280;40411;50.090;21.954;2023-10-08T04:25:31;57199.53;;;18.00;73.11
54503;BME280;40411;50.090;21.954;2023-10-08T04:27:58;57336.00;;;17.85;73.54
54503;BME280;40411;50.090;21.954;2023-10-08T04:30:33;57988.88;;;17.25;75.70
54503;BME280;40411;50.090;21.954;2023-10-08T04:33:03;56643.41;;;18.39;72.08
54503;BME280;40411;50.090;21.954;2023-10-08T04:35:33;56788.69;;;18.36;71.12
54503;BME280;40411;50.090;21.954;2023-10-08T04:38:05;56804.78;;;18.25;72.57
54503;BME280;40411;50.090;21.954;2023-10-08T04:40:35;56505.97;;;18.55;71.20
54503;BME280;40411;50.090;21.954;2023-10-08T04:43:13;56494.53;;;18.60;70.95
54503;BME280;40411;50.090;21.954;2023-10-08T04:45:41;56356.47;;;18.70;70.77
54503;BME280;40411;50.090;21.954;2023-10-08T04:48:07;56736.41;;;18.37;71.35
54503;BME280;40411;50.090;21.954;2023-10-08T04:50:36;56279.16;;;18.66;71.30
54503;BME280;40411;50.090;21.954;2023-10-08T04:53:03;57240.09;;;17.93;73.27
54503;BME280;40411;50.090;21.954;2023-10-08T04:55:35;57704.81;;;17.36;76.59
54503;BME280;40411;50.090;21.954;2023-10-08T04:58:01;58172.09;;;16.86;78.33
54503;BME280;40411;50.090;21.954;2023-10-08T05:00:37;58043.88;;;17.11;76.56
54503;BME280;40411;50.090;21.954;2023-10-08T05:03:09;58302.09;;;16.87;77.40
54503;BME280;40411;50.090;21.954;2023-10-08T05:05:41;60784.63;;;13.45;95.70
54503;BME280;40411;50.090;21.954;2023-10-08T05:08:34;61176.63;;;12.60;100.00
54503;BME280;40411;50.090;21.954;2023-10-08T05:11:24;61289.47;;;12.37;100.00
54503;BME280;40411;50.090;21.954;2023-10-08T05:14:02;61077.72;;;12.65;100.00
54503;BME280;40411;50.090;21.954;2023-10-08T05:16:42;60865.25;;;12.83;100.00
54503;BME280;40411;50.090;21.954;2023-10-08T05:19:29;60118.44;;;14.01;96.32
54503;BME280;40411;50.090;21.954;2023-10-08T05:22:12;60316.41;;;13.76;97.17
54503;BME280;40411;50.090;21.954;2023-10-08T05:24:57;60492.22;;;13.46;99.52
54503;BME280;40411;50.090;21.954;2023-10-08T05:27:43;61054.19;;;12.68;100.00
54503;BME280;40411;50.090;21.954;2023-10-08T05:30:21;60520.00;;;13.39;99.87
54503;BME280;40411;50.090;21.954;2023-10-08T05:33:06;60587.59;;;13.39;98.75
54503;BME280;40411;50.090;21.954;2023-10-08T05:35:41;59824.25;;;14.29;95.33
54503;BME280;40411;50.090;21.954;2023-10-08T05:38:08;59429.06;;;14.80;92.84
54503;BME280;40411;50.090;21.954;2023-10-08T05:40:53;60658.91;;;13.24;100.00
54503;BME280;40411;50.090;21.954;2023-10-08T05:43:35;60450.84;;;13.38;100.00
54503;BME280;40411;50.090;21.954;2023-10-08T05:48:56;60660.50;;;13.13;100.00
54503;BME280;40411;50.090;21.954;2023-10-08T05:51:35;60418.38;;;13.40;100.00
54503;BME280;40411;50.090;21.954;2023-10-08T05:54:21;60276.75;;;13.55;100.00
54503;BME280;40411;50.090;21.954;2023-10-08T05:59:45;60537.91;;;13.21;100.00
54503;BME280;40411;50.090;21.954;2023-10-08T06:05:14;59659.78;;;14.43;95.71
54503;BME280;40411;50.090;21.954;2023-10-08T06:07:53;59646.25;;;14.37;97.10
54503;BME280;40411;50.090;21.954;2023-10-08T06:10:26;60098.75;;;13.81;97.99
54503;BME280;40411;50.090;21.954;2023-10-08T06:13:10;60296.00;;;13.69;98.97
54503;BME280;40411;50.090;21.954;2023-10-08T06:15:57;60084.03;;;13.88;98.87
54503;BME280;40411;50.090;21.954;2023-10-08T06:18:27;59953.34;;;13.96;98.92
54503;BME280;40411;50.090;21.954;2023-10-08T06:23:28;60279.34;;;13.58;100.00
54503;BME280;40411;50.090;21.954;2023-10-08T06:25:55;59976.28;;;14.03;98.00
54503;BME280;40411;50.090;21.954;2023-10-08T06:28:32;59267.41;;;14.78;94.48
54503;BME280;40411;50.090;21.954;2023-10-08T06:31:03;59980.38;;;14.09;95.72
54503;BME280;40411;50.090;21.954;2023-10-08T06:33:32;60056.56;;;14.02;96.28
54503;BME280;40411;50.090;21.954;2023-10-08T06:36:04;59687.94;;;14.52;93.09
54503;BME280;40411;50.090;21.954;2023-10-08T06:38:30;59596.59;;;14.53;93.86
54503;BME280;40411;50.090;21.954;2023-10-08T06:41:00;60142.75;;;13.86;96.98
54503;BME280;40411;50.090;21.954;2023-10-08T06:43:32;59833.22;;;14.27;94.39
54503;BME280;40411;50.090;21.954;2023-10-08T06:46:00;59663.91;;;14.47;93.47
54503;BME280;40411;50.090;21.954;2023-10-08T06:48:26;59775.31;;;14.38;93.93
54503;BME280;40411;50.090;21.954;2023-10-08T06:50:55;59239.78;;;14.90;92.28
54503;BME280;40411;50.090;21.954;2023-10-08T06:53:24;59459.47;;;14.60;94.50
54503;BME280;40411;50.090;21.954;2023-10-08T06:55:51;60140.22;;;13.78;98.13
54503;BME280;40411;50.090;21.954;2023-10-08T06:58:23;60498.56;;;13.31;100.00
54503;BME280;40411;50.090;21.954;2023-10-08T07:00:51;60866.81;;;12.89;100.00
54503;BME280;40411;50.090;21.954;2023-10-08T07:03:17;61261.25;;;12.40;100.00
54503;BME280;40411;50.090;21.954;2023-10-08T07:05:48;60745.34;;;13.04;100.00
54503;BME280;40411;50.090;21.954;2023-10-08T07:08:24;60907.66;;;12.88;99.47
54503;BME280;40411;50.090;21.954;2023-10-08T07:10:51;60821.81;;;12.91;100.00
54503;BME280;40411;50.090;21.954;2023-10-08T07:13:19;61246.94;;;12.21;100.00
54503;BME280;40411;50.090;21.954;2023-10-08T07:15:52;61168.53;;;12.29;100.00
54503;BME280;40411;50.090;21.954;2023-10-08T07:18:18;61197.28;;;12.24;100.00
54503;BME280;40411;50.090;21.954;2023-10-08T07:20:52;61066.63;;;12.47;100.00
54503;BME280;40411;50.090;21.954;2023-10-08T07:23:27;60512.19;;;13.32;100.00
54503;BME280;40411;50.090;21.954;2023-10-08T07:25:56;60013.44;;;13.72;100.00
54503;BME280;40411;50.090;21.954;2023-10-08T07:28:42;58901.53;;;15.09;92.34
54503;BME280;40411;50.090;21.954;2023-10-08T07:31:15;59753.75;;;14.14;96.04
54503;BME280;40411;50.090;21.954;2023-10-08T07:33:42;58747.97;;;15.29;91.37
54503;BME280;40411;50.090;21.954;2023-10-08T07:36:12;58148.75;;;15.71;91.28
54503;BME280;40411;50.090;21.954;2023-10-08T07:38:43;59437.44;;;14.80;90.23
54503;BME280;40411;50.090;21.954;2023-10-08T07:41:10;58545.78;;;15.66;87.97
54503;BME280;40411;50.090;21.954;2023-10-08T07:43:41;58321.31;;;16.02;84.93
54503;BME280;40411;50.090;21.954;2023-10-08T07:46:10;58081.41;;;16.37;83.11
54503;BME280;40411;50.090;21.954;2023-10-08T07:48:36;58475.16;;;16.20;81.80
54503;BME280;40411;50.090;21.954;2023-10-08T07:51:08;59014.34;;;15.43;86.53
54503;BME280;40411;50.090;21.954;2023-10-08T07:53:34;58308.94;;;16.08;84.38
54503;BME280;40411;50.090;21.954;2023-10-08T07:56:08;57537.56;;;16.70;81.31
54503;BME280;40411;50.090;21.954;2023-10-08T07:58:35;57601.22;;;16.97;79.41
54503;BME280;40411;50.090;21.954;2023-10-08T08:01:09;57874.13;;;16.86;79.35
54503;BME280;40411;50.090;21.954;2023-10-08T08:03:35;55731.69;;;18.17;76.07
54503;BME280;40411;50.090;21.954;2023-10-08T08:06:04;55383.34;;;19.07;69.25
54503;BME280;40411;50.090;21.954;2023-10-08T08:08:38;53626.84;;;20.05;67.19
54503;BME280;40411;50.090;21.954;2023-10-08T08:11:06;52171.94;;;20.75;65.80
54503;BME280;40411;50.090;21.954;2023-10-08T08:13:39;53182.94;;;20.67;61.27
54503;BME280;40411;50.090;21.954;2023-10-08T08:16:09;52042.38;;;21.02;63.58
54503;BME280;40411;50.090;21.954;2023-10-08T08:18:38;51453.91;;;21.83;57.58
54503;BME280;40411;50.090;21.954;2023-10-08T08:21:09;51824.69;;;21.44;60.69
54503;BME280;40411;50.090;21.954;2023-10-08T08:23:40;56532.44;;;18.94;64.75
54503;BME280;40411;50.090;21.954;2023-10-08T08:26:07;56422.03;;;18.94;65.12
54503;BME280;40411;50.090;21.954;2023-10-08T08:28:38;57583.56;;;17.72;67.63
54503;BME280;40411;50.090;21.954;2023-10-08T08:31:05;57110.28;;;18.47;61.24
54503;BME280;40411;50.090;21.954;2023-10-08T08:33:40;56793.91;;;19.13;60.91
54503;BME280;40411;50.090;21.954;2023-10-08T08:36:19;57571.50;;;18.05;63.17
54503;BME280;40411;50.090;21.954;2023-10-08T08:38:46;56868.06;;;19.52;55.03
54503;BME280;40411;50.090;21.954;2023-10-08T08:41:14;58186.53;;;18.36;58.83
54503;BME280;40411;50.090;21.954;2023-10-08T08:43:46;57474.78;;;18.50;59.75
54503;BME280;40411;50.090;21.954;2023-10-08T08:46:13;59867.53;;;16.54;63.95
54503;BME280;40411;50.090;21.954;2023-10-08T08:48:40;57034.94;;;18.45;63.75
54503;BME280;40411;50.090;21.954;2023-10-08T08:51:07;56472.25;;;19.39;56.75
54503;BME280;40411;50.090;21.954;2023-10-08T08:53:34;57780.69;;;18.80;56.72
54503;BME280;40411;50.090;21.954;2023-10-08T08:56:01;55532.06;;;20.49;51.43
54503;BME280;40411;50.090;21.954;2023-10-08T08:58:38;58167.94;;;18.57;53.04
54503;BME280;40411;50.090;21.954;2023-10-08T09:01:10;56346.41;;;19.40;58.62
54503;BME280;40411;50.090;21.954;2023-10-08T09:03:38;54874.63;;;21.00;49.55
54503;BME280;40411;50.090;21.954;2023-10-08T09:06:05;54160.09;;;21.75;46.16
54503;BME280;40411;50.090;21.954;2023-10-08T09:08:37;58797.81;;;18.21;55.80
54503;BME280;40411;50.090;21.954;2023-10-08T09:11:08;60644.56;;;15.54;66.72
54503;BME280;40411;50.090;21.954;2023-10-08T09:13:34;61275.81;;;14.65;69.85
54503;BME280;40411;50.090;21.954;2023-10-08T09:16:06;58808.72;;;16.99;66.13
54503;BME280;40411;50.090;21.954;2023-10-08T09:18:32;55245.16;;;20.20;57.17
54503;BME280;40411;50.090;21.954;2023-10-08T09:21:10;57566.03;;;19.17;55.31
54503;BME280;40411;50.090;21.954;2023-10-08T09:23:43;57147.38;;;19.79;52.05
54503;BME280;40411;50.090;21.954;2023-10-08T09:26:10;57487.78;;;18.93;55.00
54503;BME280;40411;50.090;21.954;2023-10-08T09:28:39;58113.06;;;18.77;52.53
54503;BME280;40411;50.090;21.954;2023-10-08T09:31:10;55900.59;;;20.53;49.30
54503;BME280;40411;50.090;21.954;2023-10-08T09:33:37;55114.75;;;21.07;48.78
54503;BME280;40411;50.090;21.954;2023-10-08T09:36:03;55633.00;;;21.63;42.00
54503;BME280;40411;50.090;21.954;2023-10-08T09:38:35;53770.44;;;22.89;39.84
54503;BME280;40411;50.090;21.954;2023-10-08T09:41:03;55855.31;;;21.12;45.17
54503;BME280;40411;50.090;21.954;2023-10-08T09:43:30;55432.72;;;21.41;44.53
54503;BME280;40411;50.090;21.954;2023-10-08T09:46:18;54365.63;;;22.20;42.62
54503;BME280;40411;50.090;21.954;2023-10-08T09:48:51;57659.78;;;20.60;40.83
54503;BME280;40411;50.090;21.954;2023-10-08T09:51:20;58151.66;;;20.16;42.86
54503;BME280;40411;50.090;21.954;2023-10-08T09:53:57;60810.41;;;17.37;46.94
54503;BME280;40411;50.090;21.954;2023-10-08T09:56:29;59899.31;;;17.38;51.58
54503;BME280;40411;50.090;21.954;2023-10-08T09:58:55;60483.28;;;17.53;48.43
54503;BME280;40411;50.090;21.954;2023-10-08T10:01:21;61019.06;;;16.73;50.70
54503;BME280;40411;50.090;21.954;2023-10-08T10:03:48;60256.13;;;17.16;50.64
54503;BME280;40411;50.090;21.954;2023-10-08T10:06:15;59252.06;;;18.11;50.84
54503;BME280;40411;50.090;21.954;2023-10-08T10:08:44;57631.03;;;20.14;44.27
54503;BME280;40411;50.090;21.954;2023-10-08T10:11:11;57247.31;;;20.88;40.49
54503;BME280;40411;50.090;21.954;2023-10-08T10:13:50;56463.03;;;21.35;40.76
54503;BME280;40411;50.090;21.954;2023-10-08T10:16:21;55275.84;;;22.06;40.50
54503;BME280;40411;50.090;21.954;2023-10-08T10:18:50;57649.22;;;20.27;42.96
54503;BME280;40411;50.090;21.954;2023-10-08T10:23:43;57250.13;;;21.08;38.96
54503;BME280;40411;50.090;21.954;2023-10-08T10:26:26;57509.84;;;20.61;41.82
54503;BME280;40411;50.090;21.954;2023-10-08T10:31:45;57039.47;;;20.70;43.06
54503;BME280;40411;50.090;21.954;2023-10-08T10:34:17;56930.44;;;21.03;41.31
54503;BME280;40411;50.090;21.954;2023-10-08T10:36:45;57322.59;;;20.95;39.89
54503;BME280;40411;50.090;21.954;2023-10-08T10:39:18;56284.59;;;21.46;41.33
54503;BME280;40411;50.090;21.954;2023-10-08T10:42:01;59693.94;;;19.28;39.52
54503;BME280;40411;50.090;21.954;2023-10-08T10:44:29;59691.50;;;18.70;43.56
54503;BME280;40411;50.090;21.954;2023-10-08T10:46:57;59800.06;;;18.60;42.82
54503;BME280;40411;50.090;21.954;2023-10-08T10:49:58;60031.53;;;18.57;41.15
54503;BME280;40411;50.090;21.954;2023-10-08T10:52:52;60421.13;;;18.68;39.89
54503;BME280;40411;50.090;21.954;2023-10-08T10:55:18;60481.31;;;18.42;40.58
54503;BME280;40411;50.090;21.954;2023-10-08T10:57:52;59979.38;;;19.12;39.24
54503;BME280;40411;50.090;21.954;2023-10-08T11:00:25;60145.16;;;18.98;40.50
54503;BME280;40411;50.090;21.954;2023-10-08T11:03:01;61247.34;;;18.06;39.20
54503;BME280;40411;50.090;21.954;2023-10-08T11:05:51;62971.22;;;15.16;40.78
54503;BME280;40411;50.090;21.954;2023-10-08T11:08:21;63019.06;;;15.52;38.57
54503;BME280;40411;50.090;21.954;2023-10-08T11:10:49;63262.91;;;14.52;42.36
54503;BME280;40411;50.090;21.954;2023-10-08T11:13:20;63329.44;;;14.48;41.33
54503;BME280;40411;50.090;21.954;2023-10-08T11:15:51;61916.28;;;16.70;39.56
54503;BME280;40411;50.090;21.954;2023-10-08T11:18:24;61633.63;;;17.43;37.65
54503;BME280;40411;50.090;21.954;2023-10-08T11:20:51;61191.63;;;18.52;34.71
54503;BME280;40411;50.090;21.954;2023-10-08T11:23:39;60217.06;;;19.64;35.04
54503;BME280;40411;50.090;21.954;2023-10-08T11:26:07;60628.47;;;19.19;35.32
54503;BME280;40411;50.090;21.954;2023-10-08T11:28:37;61237.00;;;18.60;34.97
54503;BME280;40411;50.090;21.954;2023-10-08T11:31:11;61005.34;;;18.87;34.54
54503;BME280;40411;50.090;21.954;2023-10-08T11:33:40;61777.44;;;18.13;34.65
54503;BME280;40411;50.090;21.954;2023-10-08T11:36:09;61902.59;;;18.12;32.81
54503;BME280;40411;50.090;21.954;2023-10-08T11:38:47;62371.03;;;17.39;33.26
54503;BME280;40411;50.090;21.954;2023-10-08T11:41:14;62266.75;;;17.94;31.73
54503;BME280;40411;50.090;21.954;2023-10-08T11:43:55;62523.00;;;17.41;32.42
54503;BME280;40411;50.090;21.954;2023-10-08T11:46:31;62709.66;;;16.85;33.63
54503;BME280;40411;50.090;21.954;2023-10-08T11:49:04;62815.06;;;16.83;32.26
54503;BME280;40411;50.090;21.954;2023-10-08T11:51:34;62711.47;;;16.94;33.25
54503;BME280;40411;50.090;21.954;2023-10-08T11:54:03;63158.75;;;16.29;32.68
54503;BME280;40411;50.090;21.954;2023-10-08T11:56:32;63091.75;;;16.25;33.35
54503;BME280;40411;50.090;21.954;2023-10-08T11:59:02;62578.84;;;16.53;36.70
54503;BME280;40411;50.090;21.954;2023-10-08T12:01:31;62732.25;;;16.34;36.25
54503;BME280;40411;50.090;21.954;2023-10-08T12:04:01;62466.84;;;16.37;39.55
54503;BME280;40411;50.090;21.954;2023-10-08T12:06:27;61961.97;;;17.09;39.21
54503;BME280;40411;50.090;21.954;2023-10-08T12:08:59;62792.56;;;16.24;36.46
54503;BME280;40411;50.090;21.954;2023-10-08T12:11:25;62938.59;;;15.70;38.01
54503;BME280;40411;50.090;21.954;2023-10-08T12:13:58;62315.84;;;16.79;37.96
54503;BME280;40411;50.090;21.954;2023-10-08T12:16:27;62005.22;;;17.10;39.12
54503;BME280;40411;50.090;21.954;2023-10-08T12:19:02;61934.47;;;16.97;40.43
54503;BME280;40411;50.090;21.954;2023-10-08T12:21:32;62237.91;;;16.85;37.91
54503;BME280;40411;50.090;21.954;2023-10-08T12:23:59;62492.09;;;16.91;34.61
54503;BME280;40411;50.090;21.954;2023-10-08T12:26:26;62603.63;;;17.07;32.89
54503;BME280;40411;50.090;21.954;2023-10-08T12:28:52;62511.66;;;16.95;35.00
54503;BME280;40411;50.090;21.954;2023-10-08T12:31:19;62586.28;;;16.83;34.28
54503;BME280;40411;50.090;21.954;2023-10-08T12:33:50;62351.56;;;17.06;34.71
54503;BME280;40411;50.090;21.954;2023-10-08T12:36:20;62534.44;;;16.74;34.86
54503;BME280;40411;50.090;21.954;2023-10-08T12:38:49;61964.50;;;16.98;39.41
54503;BME280;40411;50.090;21.954;2023-10-08T12:41:23;62516.16;;;16.82;34.95
54503;BME280;40411;50.090;21.954;2023-10-08T12:43:53;62787.19;;;16.86;32.43
54503;BME280;40411;50.090;21.954;2023-10-08T12:46:21;62744.16;;;17.20;30.78
54503;BME280;40411;50.090;21.954;2023-10-08T12:48:51;62129.38;;;17.81;32.89
54503;BME280;40411;50.090;21.954;2023-10-08T12:51:21;62011.31;;;18.04;33.07
54503;BME280;40411;50.090;21.954;2023-10-08T12:53:51;61847.13;;;18.12;33.76
54503;BME280;40411;50.090;21.954;2023-10-08T12:56:25;62460.34;;;17.16;34.13
54503;BME280;40411;50.090;21.954;2023-10-08T12:58:58;61919.13;;;17.59;36.62
54503;BME280;40411;50.090;21.954;2023-10-08T13:01:24;61676.00;;;17.94;36.38
54503;BME280;40411;50.090;21.954;2023-10-08T13:03:55;62023.81;;;17.81;33.84
54503;BME280;40411;50.090;21.954;2023-10-08T13:06:27;62423.63;;;17.62;32.19
54503;BME280;40411;50.090;21.954;2023-10-08T13:08:57;62543.13;;;17.15;33.43
54503;BME280;40411;50.090;21.954;2023-10-08T13:11:25;62283.47;;;17.79;32.70
54503;BME280;40411;50.090;21.954;2023-10-08T13:13:52;62869.78;;;16.37;34.43
54503;BME280;40411;50.090;21.954;2023-10-08T13:16:22;63228.72;;;15.76;34.16
54503;BME280;40411;50.090;21.954;2023-10-08T13:18:49;62738.41;;;16.97;32.73
54503;BME280;40411;50.090;21.954;2023-10-08T13:21:16;62409.66;;;17.11;34.67
54503;BME280;40411;50.090;21.954;2023-10-08T13:23:42;61942.81;;;17.54;36.79
54503;BME280;40411;50.090;21.954;2023-10-08T13:26:08;61669.22;;;18.49;33.21
54503;BME280;40411;50.090;21.954;2023-10-08T13:28:35;61452.09;;;18.53;35.07
54503;BME280;40411;50.090;21.954;2023-10-08T13:31:04;62594.09;;;17.33;31.91